sensor_id;sensor_type;location;lat;lon;timestamp;temperature;humidity
19755;DHT22;10036;47.812;9.274;2023-07-20T00:00:05;20.20;99.90
19755;DHT22;10036;47.812;9.274;2023-07-20T00:02:32;20.00;99.90
19755;DHT22;10036;47.812;9.274;2023-07-20T00:04:59;19.90;99.90
19755;DHT22;10036;47.812;9.274;2023-07-20T00:07:26;19.60;99.90
19755;DHT22;10036;47.812;9.274;2023-07-20T00:09:52;19.60;99.90
19755;DHT22;10036;47.812;9.274;2023-07-20T00:12:19;19.80;99.90
19755;DHT22;10036;47.812;9.274;2023-07-20T00:14:46;20.00;99.90
19755;DHT22;10036;47.812;9.274;2023-07-20T00:17:14;19.90;99.90
19755;DHT22;10036;47.812;9.274;2023-07-20T00:19:41;20.00;99.90
19755;DHT22;10036;47.812;9.274;2023-07-20T00:22:08;20.10;99.90
19755;DHT22;10036;47.812;9.274;2023-07-20T00:24:35;20.20;99.90
19755;DHT22;10036;47.812;9.274;2023-07-20T00:27:01;20.30;99.90
19755;DHT22;10036;47.812;9.274;2023-07-20T00:29:28;20.40;99.90
19755;DHT22;10036;47.812;9.274;2023-07-20T00:31:55;20.40;99.90
19755;DHT22;10036;47.812;9.274;2023-07-20T00:34:24;20.40;99.90
19755;DHT22;10036;47.812;9.274;2023-07-20T00:36:51;20.10;99.90
19755;DHT22;10036;47.812;9.274;2023-07-20T00:39:18;20.30;99.90
19755;DHT22;10036;47.812;9.274;2023-07-20T00:41:45;20.30;99.90
19755;DHT22;10036;47.812;9.274;2023-07-20T00:44:12;20.30;99.90
19755;DHT22;10036;47.812;9.274;2023-07-20T00:46:39;20.30;99.90
19755;DHT22;10036;47.812;9.274;2023-07-20T00:49:07;20.20;99.90
19755;DHT22;10036;47.812;9.274;2023-07-20T00:51:35;20.20;99.90
19755;DHT22;10036;47.812;9.274;2023-07-20T00:54:02;20.10;99.90
19755;DHT22;10036;47.812;9.274;2023-07-20T00:56:29;20.00;99.90
19755;DHT22;10036;47.812;9.274;2023-07-20T00:58:56;20.00;99.90
19755;DHT22;10036;47.812;9.274;2023-07-20T01:01:23;19.90;99.90
19755;DHT22;10036;47.812;9.274;2023-07-20T01:03:50;19.60;99.90
19755;DHT22;10036;47.812;9.274;2023-07-20T01:06:26;19.60;99.90
19755;DHT22;10036;47.812;9.274;2023-07-20T01:09:04;19.50;99.90
19755;DHT22;10036;47.812;9.274;2023-07-20T01:11:38;19.50;99.90
19755;DHT22;10036;47.812;9.274;2023-07-20T01:14:07;19.60;99.90
19755;DHT22;10036;47.812;9.274;2023-07-20T01:16:34;19.50;99.90
19755;DHT22;10036;47.812;9.274;2023-07-20T01:19:01;19.50;99.90
19755;DHT22;10036;47.812;9.274;2023-07-20T01:21:32;19.50;99.90
19755;DHT22;10036;47.812;9.274;2023-07-20T01:30:16;19.50;99.90
19755;DHT22;10036;47.812;9.274;2023-07-20T01:32:47;19.60;99.90
19755;DHT22;10036;47.812;9.274;2023-07-20T01:35:16;19.50;99.90
19755;DHT22;10036;47.812;9.274;2023-07-20T01:37:46;19.50;99.90
19755;DHT22;10036;47.812;9.274;2023-07-20T01:40:15;19.50;99.90
19755;DHT22;10036;47.812;9.274;2023-07-20T01:42:46;19.60;99.90
19755;DHT22;10036;47.812;9.274;2023-07-20T01:45:13;19.50;99.90
19755;DHT22;10036;47.812;9.274;2023-07-20T01:47:39;19.40;99.90
19755;DHT22;10036;47.812;9.274;2023-07-20T01:50:08;19.50;99.90
19755;DHT22;10036;47.812;9.274;2023-07-20T01:52:35;19.50;99.90
19755;DHT22;10036;47.812;9.274;2023-07-20T01:55:02;19.40;99.90
19755;DHT22;10036;47.812;9.274;2023-07-20T01:57:29;19.20;99.90
19755;DHT22;10036;47.812;9.274;2023-07-20T01:59:56;19.30;99.90
19755;DHT22;10036;47.812;9.274;2023-07-20T02:02:26;19.30;99.90
19755;DHT22;10036;47.812;9.274;2023-07-20T02:04:53;19.20;99.90
19755;DHT22;10036;47.812;9.274;2023-07-20T02:07:21;19.20;99.90
19755;DHT22;10036;47.812;9.274;2023-07-20T02:09:48;19.10;99.90
19755;DHT22;10036;47.812;9.274;2023-07-20T02:12:14;19.10;99.90
19755;DHT22;10036;47.812;9.274;2023-07-20T02:14:42;19.20;99.90
19755;DHT22;10036;47.812;9.274;2023-07-20T02:17:09;19.20;99.90
19755;DHT22;10036;47.812;9.274;2023-07-20T02:19:37;19.00;99.90
19755;DHT22;10036;47.812;9.274;2023-07-20T02:22:04;18.90;99.90
19755;DHT22;10036;47.812;9.274;2023-07-20T02:24:32;18.90;99.90
19755;DHT22;10036;47.812;9.274;2023-07-20T02:26:59;19.00;99.90
19755;DHT22;10036;47.812;9.274;2023-07-20T02:29:26;19.10;99.90
19755;DHT22;10036;47.812;9.274;2023-07-20T02:31:53;19.10;99.90
19755;DHT22;10036;47.812;9.274;2023-07-20T02:34:20;19.00;99.90
19755;DHT22;10036;47.812;9.274;2023-07-20T02:36:47;18.90;99.90
19755;DHT22;10036;47.812;9.274;2023-07-20T02:39:13;18.90;99.90
19755;DHT22;10036;47.812;9.274;2023-07-20T02:41:42;18.90;99.90
19755;DHT22;10036;47.812;9.274;2023-07-20T02:44:08;18.90;99.90
19755;DHT22;10036;47.812;9.274;2023-07-20T02:46:35;18.90;99.90
19755;DHT22;10036;47.812;9.274;2023-07-20T02:49:02;19.00;99.90
19755;DHT22;10036;47.812;9.274;2023-07-20T02:51:29;18.90;99.90
19755;DHT22;10036;47.812;9.274;2023-07-20T02:53:56;18.60;99.90
19755;DHT22;10036;47.812;9.274;2023-07-20T02:56:23;18.80;99.90
19755;DHT22;10036;47.812;9.274;2023-07-20T02:58:51;18.80;99.90
19755;DHT22;10036;47.812;9.274;2023-07-20T03:01:18;18.90;99.90
19755;DHT22;10036;47.812;9.274;2023-07-20T03:03:44;18.90;99.90
19755;DHT22;10036;47.812;9.274;2023-07-20T03:06:12;18.90;99.90
19755;DHT22;10036;47.812;9.274;2023-07-20T03:08:40;18.90;99.90
19755;DHT22;10036;47.812;9.274;2023-07-20T03:11:12;18.90;99.90
19755;DHT22;10036;47.812;9.274;2023-07-20T03:13:39;18.80;99.90
19755;DHT22;10036;47.812;9.274;2023-07-20T03:16:08;18.50;99.90
19755;DHT22;10036;47.812;9.274;2023-07-20T03:18:36;18.40;99.90
19755;DHT22;10036;47.812;9.274;2023-07-20T03:21:03;18.30;99.90
19755;DHT22;10036;47.812;9.274;2023-07-20T03:23:30;18.40;99.90
19755;DHT22;10036;47.812;9.274;2023-07-20T03:25:57;18.50;99.90
19755;DHT22;10036;47.812;9.274;2023-07-20T03:28:24;18.40;99.90
19755;DHT22;10036;47.812;9.274;2023-07-20T03:30:53;18.30;99.90
19755;DHT22;10036;47.812;9.274;2023-07-20T03:33:22;18.40;99.90
19755;DHT22;10036;47.812;9.274;2023-07-20T03:35:48;18.40;99.90
19755;DHT22;10036;47.812;9.274;2023-07-20T03:38:15;18.50;99.90
19755;DHT22;10036;47.812;9.274;2023-07-20T03:40:49;18.40;99.90
19755;DHT22;10036;47.812;9.274;2023-07-20T03:43:16;18.20;99.90
19755;DHT22;10036;47.812;9.274;2023-07-20T03:45:43;18.50;99.90
19755;DHT22;10036;47.812;9.274;2023-07-20T03:48:11;18.60;99.90
19755;DHT22;10036;47.812;9.274;2023-07-20T03:50:39;18.70;99.90
19755;DHT22;10036;47.812;9.274;2023-07-20T03:53:07;18.80;99.90
19755;DHT22;10036;47.812;9.274;2023-07-20T03:55:33;18.80;99.90
19755;DHT22;10036;47.812;9.274;2023-07-20T03:58:01;18.80;99.90
19755;DHT22;10036;47.812;9.274;2023-07-20T04:00:28;18.80;99.90
19755;DHT22;10036;47.812;9.274;2023-07-20T04:02:55;18.80;99.90
19755;DHT22;10036;47.812;9.274;2023-07-20T04:05:22;18.80;99.90
19755;DHT22;10036;47.812;9.274;2023-07-20T04:07:50;18.50;99.90
19755;DHT22;10036;47.812;9.274;2023-07-20T04:10:18;18.50;99.90
19755;DHT22;10036;47.812;9.274;2023-07-20T04:12:45;18.60;99.90
19755;DHT22;10036;47.812;9.274;2023-07-20T04:15:12;18.50;99.90
19755;DHT22;10036;47.812;9.274;2023-07-20T04:17:39;18.50;99.90
19755;DHT22;10036;47.812;9.274;2023-07-20T04:20:07;18.40;99.90
19755;DHT22;10036;47.812;9.274;2023-07-20T04:22:35;18.40;99.90
19755;DHT22;10036;47.812;9.274;2023-07-20T04:25:03;18.50;99.90
19755;DHT22;10036;47.812;9.274;2023-07-20T04:27:30;18.50;99.90
19755;DHT22;10036;47.812;9.274;2023-07-20T04:29:58;18.60;99.90
19755;DHT22;10036;47.812;9.274;2023-07-20T04:32:26;18.60;99.90
19755;DHT22;10036;47.812;9.274;2023-07-20T04:34:52;18.70;99.90
19755;DHT22;10036;47.812;9.274;2023-07-20T04:37:19;18.50;99.90
19755;DHT22;10036;47.812;9.274;2023-07-20T04:39:46;18.60;99.90
19755;DHT22;10036;47.812;9.274;2023-07-20T04:42:14;18.50;99.90
19755;DHT22;10036;47.812;9.274;2023-07-20T04:44:41;18.50;99.90
19755;DHT22;10036;47.812;9.274;2023-07-20T04:47:09;18.50;99.90
19755;DHT22;10036;47.812;9.274;2023-07-20T04:49:36;18.60;99.90
19755;DHT22;10036;47.812;9.274;2023-07-20T04:52:03;18.80;99.90
19755;DHT22;10036;47.812;9.274;2023-07-20T04:54:30;18.70;99.90
19755;DHT22;10036;47.812;9.274;2023-07-20T04:56:57;18.70;99.90
19755;DHT22;10036;47.812;9.274;2023-07-20T04:59:25;18.60;99.90
19755;DHT22;10036;47.812;9.274;2023-07-20T05:01:52;18.60;99.90
19755;DHT22;10036;47.812;9.274;2023-07-20T05:04:19;18.80;99.90
19755;DHT22;10036;47.812;9.274;2023-07-20T05:06:46;18.60;99.90
19755;DHT22;10036;47.812;9.274;2023-07-20T05:09:12;18.50;99.90
19755;DHT22;10036;47.812;9.274;2023-07-20T05:11:39;18.50;99.90
19755;DHT22;10036;47.812;9.274;2023-07-20T05:14:06;18.40;99.90
19755;DHT22;10036;47.812;9.274;2023-07-20T05:16:34;18.40;99.90
19755;DHT22;10036;47.812;9.274;2023-07-20T05:19:01;18.40;99.90
19755;DHT22;10036;47.812;9.274;2023-07-20T05:21:28;18.50;99.90
19755;DHT22;10036;47.812;9.274;2023-07-20T05:23:55;18.30;99.90
19755;DHT22;10036;47.812;9.274;2023-07-20T05:26:22;18.30;99.90
19755;DHT22;10036;47.812;9.274;2023-07-20T05:28:48;18.40;99.90
19755;DHT22;10036;47.812;9.274;2023-07-20T05:31:15;18.30;99.90
19755;DHT22;10036;47.812;9.274;2023-07-20T05:33:43;18.40;99.90
19755;DHT22;10036;47.812;9.274;2023-07-20T05:36:10;18.50;99.90
19755;DHT22;10036;47.812;9.274;2023-07-20T05:38:37;18.50;99.90
19755;DHT22;10036;47.812;9.274;2023-07-20T05:41:04;18.70;99.90
19755;DHT22;10036;47.812;9.274;2023-07-20T05:43:32;18.60;99.90
19755;DHT22;10036;47.812;9.274;2023-07-20T05:45:59;18.50;99.90
19755;DHT22;10036;47.812;9.274;2023-07-20T05:48:26;18.50;99.90
19755;DHT22;10036;47.812;9.274;2023-07-20T05:50:54;18.40;99.90
19755;DHT22;10036;47.812;9.274;2023-07-20T05:53:21;18.40;99.90
19755;DHT22;10036;47.812;9.274;2023-07-20T05:55:52;18.70;99.90
19755;DHT22;10036;47.812;9.274;2023-07-20T05:58:19;18.80;99.90
19755;DHT22;10036;47.812;9.274;2023-07-20T06:00:47;18.90;99.90
19755;DHT22;10036;47.812;9.274;2023-07-20T06:03:14;18.90;99.90
19755;DHT22;10036;47.812;9.274;2023-07-20T06:05:43;19.20;99.90
19755;DHT22;10036;47.812;9.274;2023-07-20T06:08:11;19.20;99.90
19755;DHT22;10036;47.812;9.274;2023-07-20T06:10:38;19.20;99.90
19755;DHT22;10036;47.812;9.274;2023-07-20T06:13:05;19.10;99.90
19755;DHT22;10036;47.812;9.274;2023-07-20T06:15:33;19.20;99.90
19755;DHT22;10036;47.812;9.274;2023-07-20T06:18:01;19.40;99.90
19755;DHT22;10036;47.812;9.274;2023-07-20T06:20:29;19.50;99.90
19755;DHT22;10036;47.812;9.274;2023-07-20T06:22:56;19.20;99.90
19755;DHT22;10036;47.812;9.274;2023-07-20T06:25:24;19.10;99.90
19755;DHT22;10036;47.812;9.274;2023-07-20T06:27:51;19.20;99.90
19755;DHT22;10036;47.812;9.274;2023-07-20T06:30:19;19.30;99.90
19755;DHT22;10036;47.812;9.274;2023-07-20T06:32:46;19.60;99.90
19755;DHT22;10036;47.812;9.274;2023-07-20T06:35:13;19.60;99.90
19755;DHT22;10036;47.812;9.274;2023-07-20T06:37:40;19.70;99.90
19755;DHT22;10036;47.812;9.274;2023-07-20T06:40:07;19.70;99.90
19755;DHT22;10036;47.812;9.274;2023-07-20T06:42:36;19.90;99.90
19755;DHT22;10036;47.812;9.274;2023-07-20T06:45:04;19.90;99.90
19755;DHT22;10036;47.812;9.274;2023-07-20T06:47:31;19.90;99.90
19755;DHT22;10036;47.812;9.274;2023-07-20T06:49:58;19.90;99.90
19755;DHT22;10036;47.812;9.274;2023-07-20T06:52:25;19.90;99.90
19755;DHT22;10036;47.812;9.274;2023-07-20T06:54:52;20.00;99.90
19755;DHT22;10036;47.812;9.274;2023-07-20T06:57:18;20.10;99.90
19755;DHT22;10036;47.812;9.274;2023-07-20T06:59:47;20.20;99.90
19755;DHT22;10036;47.812;9.274;2023-07-20T07:02:14;20.10;99.90
19755;DHT22;10036;47.812;9.274;2023-07-20T07:04:41;20.20;99.90
19755;DHT22;10036;47.812;9.274;2023-07-20T07:07:08;20.30;99.90
19755;DHT22;10036;47.812;9.274;2023-07-20T07:09:35;20.20;99.90
19755;DHT22;10036;47.812;9.274;2023-07-20T07:12:02;20.30;99.90
19755;DHT22;10036;47.812;9.274;2023-07-20T07:14:29;20.30;99.90
19755;DHT22;10036;47.812;9.274;2023-07-20T07:16:57;20.40;99.90
19755;DHT22;10036;47.812;9.274;2023-07-20T07:19:24;20.10;99.90
19755;DHT22;10036;47.812;9.274;2023-07-20T07:21:51;20.20;99.90
19755;DHT22;10036;47.812;9.274;2023-07-20T07:24:18;20.30;99.90
19755;DHT22;10036;47.812;9.274;2023-07-20T07:26:45;20.20;99.90
19755;DHT22;10036;47.812;9.274;2023-07-20T07:29:12;20.20;99.90
19755;DHT22;10036;47.812;9.274;2023-07-20T07:31:39;20.30;99.90
19755;DHT22;10036;47.812;9.274;2023-07-20T07:34:07;20.20;99.90
19755;DHT22;10036;47.812;9.274;2023-07-20T07:36:34;20.20;99.90
19755;DHT22;10036;47.812;9.274;2023-07-20T07:39:01;20.30;99.90
19755;DHT22;10036;47.812;9.274;2023-07-20T07:41:28;20.40;99.90
19755;DHT22;10036;47.812;9.274;2023-07-20T07:43:55;20.40;99.90
19755;DHT22;10036;47.812;9.274;2023-07-20T07:46:22;20.30;99.90
19755;DHT22;10036;47.812;9.274;2023-07-20T07:48:49;20.50;99.90
19755;DHT22;10036;47.812;9.274;2023-07-20T07:51:17;20.70;99.90
19755;DHT22;10036;47.812;9.274;2023-07-20T07:53:45;20.50;99.90
19755;DHT22;10036;47.812;9.274;2023-07-20T07:56:12;20.50;99.90
19755;DHT22;10036;47.812;9.274;2023-07-20T07:58:39;20.40;99.90
19755;DHT22;10036;47.812;9.274;2023-07-20T08:01:06;20.30;99.90
19755;DHT22;10036;47.812;9.274;2023-07-20T08:03:32;20.40;99.90
19755;DHT22;10036;47.812;9.274;2023-07-20T08:06:01;20.40;99.90
19755;DHT22;10036;47.812;9.274;2023-07-20T08:08:31;20.60;99.90
19755;DHT22;10036;47.812;9.274;2023-07-20T08:10:58;20.70;99.90
19755;DHT22;10036;47.812;9.274;2023-07-20T08:13:25;20.90;99.90
19755;DHT22;10036;47.812;9.274;2023-07-20T08:15:53;20.90;99.90
19755;DHT22;10036;47.812;9.274;2023-07-20T08:18:19;20.90;99.90
19755;DHT22;10036;47.812;9.274;2023-07-20T08:20:47;21.10;99.90
19755;DHT22;10036;47.812;9.274;2023-07-20T08:23:14;21.20;99.90
19755;DHT22;10036;47.812;9.274;2023-07-20T08:25:43;21.30;99.90
19755;DHT22;10036;47.812;9.274;2023-07-20T08:28:10;21.40;99.90
19755;DHT22;10036;47.812;9.274;2023-07-20T08:30:41;21.60;99.90
19755;DHT22;10036;47.812;9.274;2023-07-20T08:33:09;21.70;99.90
19755;DHT22;10036;47.812;9.274;2023-07-20T08:35:36;21.70;99.90
19755;DHT22;10036;47.812;9.274;2023-07-20T08:38:03;21.60;99.90
19755;DHT22;10036;47.812;9.274;2023-07-20T08:40:31;21.50;99.90
19755;DHT22;10036;47.812;9.274;2023-07-20T08:43:00;21.50;99.90
19755;DHT22;10036;47.812;9.274;2023-07-20T08:45:27;21.50;99.90
19755;DHT22;10036;47.812;9.274;2023-07-20T08:47:56;21.40;99.90
19755;DHT22;10036;47.812;9.274;2023-07-20T08:50:25;21.70;99.90
19755;DHT22;10036;47.812;9.274;2023-07-20T08:52:53;21.70;99.90
19755;DHT22;10036;47.812;9.274;2023-07-20T08:55:20;21.90;99.90
19755;DHT22;10036;47.812;9.274;2023-07-20T08:57:50;22.00;99.90
19755;DHT22;10036;47.812;9.274;2023-07-20T09:00:20;22.00;99.90
19755;DHT22;10036;47.812;9.274;2023-07-20T09:02:50;22.30;99.90
19755;DHT22;10036;47.812;9.274;2023-07-20T09:05:17;22.50;99.90
19755;DHT22;10036;47.812;9.274;2023-07-20T09:07:44;22.70;99.90
19755;DHT22;10036;47.812;9.274;2023-07-20T09:10:11;22.50;99.90
19755;DHT22;10036;47.812;9.274;2023-07-20T09:12:40;22.40;99.90
19755;DHT22;10036;47.812;9.274;2023-07-20T09:15:08;22.50;99.90
19755;DHT22;10036;47.812;9.274;2023-07-20T09:17:37;22.60;99.90
19755;DHT22;10036;47.812;9.274;2023-07-20T09:20:05;22.70;99.90
19755;DHT22;10036;47.812;9.274;2023-07-20T09:22:34;22.70;99.90
19755;DHT22;10036;47.812;9.274;2023-07-20T09:25:01;22.70;99.90
19755;DHT22;10036;47.812;9.274;2023-07-20T09:27:35;22.70;99.90
19755;DHT22;10036;47.812;9.274;2023-07-20T09:30:04;22.40;99.90
19755;DHT22;10036;47.812;9.274;2023-07-20T09:32:39;22.40;99.90
19755;DHT22;10036;47.812;9.274;2023-07-20T09:35:12;22.70;99.90
19755;DHT22;10036;47.812;9.274;2023-07-20T09:37:39;22.90;99.90
19755;DHT22;10036;47.812;9.274;2023-07-20T09:40:07;22.90;99.90
19755;DHT22;10036;47.812;9.274;2023-07-20T09:42:35;22.90;99.90
19755;DHT22;10036;47.812;9.274;2023-07-20T09:45:06;22.80;99.90
19755;DHT22;10036;47.812;9.274;2023-07-20T09:47:35;23.00;99.90
19755;DHT22;10036;47.812;9.274;2023-07-20T09:50:05;23.20;99.90
19755;DHT22;10036;47.812;9.274;2023-07-20T09:52:37;23.10;99.90
19755;DHT22;10036;47.812;9.274;2023-07-20T09:55:05;23.00;99.90
19755;DHT22;10036;47.812;9.274;2023-07-20T09:57:33;23.10;99.90
19755;DHT22;10036;47.812;9.274;2023-07-20T10:00:01;23.00;99.90
19755;DHT22;10036;47.812;9.274;2023-07-20T10:02:32;23.20;99.90
19755;DHT22;10036;47.812;9.274;2023-07-20T10:05:04;23.10;99.90
19755;DHT22;10036;47.812;9.274;2023-07-20T10:07:31;23.10;99.90
19755;DHT22;10036;47.812;9.274;2023-07-20T10:10:01;23.40;99.90
19755;DHT22;10036;47.812;9.274;2023-07-20T10:12:31;23.60;99.90
19755;DHT22;10036;47.812;9.274;2023-07-20T10:15:04;23.50;99.90
19755;DHT22;10036;47.812;9.274;2023-07-20T10:17:34;23.50;99.90
19755;DHT22;10036;47.812;9.274;2023-07-20T10:20:03;23.50;99.90
19755;DHT22;10036;47.812;9.274;2023-07-20T10:22:35;23.30;99.90
19755;DHT22;10036;47.812;9.274;2023-07-20T10:25:03;23.20;99.90
19755;DHT22;10036;47.812;9.274;2023-07-20T10:27:30;23.40;99.90
19755;DHT22;10036;47.812;9.274;2023-07-20T10:29:58;23.60;99.90
19755;DHT22;10036;47.812;9.274;2023-07-20T10:32:25;23.90;99.90
19755;DHT22;10036;47.812;9.274;2023-07-20T10:34:52;23.90;99.90
19755;DHT22;10036;47.812;9.274;2023-07-20T10:37:51;23.90;99.90
19755;DHT22;10036;47.812;9.274;2023-07-20T10:40:28;23.50;99.90
19755;DHT22;10036;47.812;9.274;2023-07-20T10:42:58;23.50;99.90
19755;DHT22;10036;47.812;9.274;2023-07-20T10:45:36;23.70;99.90
19755;DHT22;10036;47.812;9.274;2023-07-20T10:48:04;24.30;99.90
19755;DHT22;10036;47.812;9.274;2023-07-20T10:50:32;24.60;99.90
19755;DHT22;10036;47.812;9.274;2023-07-20T10:53:10;24.70;99.90
19755;DHT22;10036;47.812;9.274;2023-07-20T10:55:37;24.80;99.90
19755;DHT22;10036;47.812;9.274;2023-07-20T10:58:08;24.70;99.90
19755;DHT22;10036;47.812;9.274;2023-07-20T11:00:36;24.50;99.90
19755;DHT22;10036;47.812;9.274;2023-07-20T11:03:03;24.00;99.90
19755;DHT22;10036;47.812;9.274;2023-07-20T11:05:35;23.80;99.90
19755;DHT22;10036;47.812;9.274;2023-07-20T11:08:10;24.00;99.90
19755;DHT22;10036;47.812;9.274;2023-07-20T11:10:37;24.30;99.90
19755;DHT22;10036;47.812;9.274;2023-07-20T11:13:21;24.20;99.90
19755;DHT22;10036;47.812;9.274;2023-07-20T11:16:01;24.20;99.90
19755;DHT22;10036;47.812;9.274;2023-07-20T11:18:30;24.30;99.90
19755;DHT22;10036;47.812;9.274;2023-07-20T11:20:58;24.20;99.90
19755;DHT22;10036;47.812;9.274;2023-07-20T11:23:28;24.30;99.90
19755;DHT22;10036;47.812;9.274;2023-07-20T11:25:56;24.30;99.90
19755;DHT22;10036;47.812;9.274;2023-07-20T11:28:24;24.50;99.90
19755;DHT22;10036;47.812;9.274;2023-07-20T11:30:52;24.40;99.90
19755;DHT22;10036;47.812;9.274;2023-07-20T11:33:20;24.40;99.90
19755;DHT22;10036;47.812;9.274;2023-07-20T11:35:48;24.40;99.90
19755;DHT22;10036;47.812;9.274;2023-07-20T11:38:16;24.30;99.90
19755;DHT22;10036;47.812;9.274;2023-07-20T11:40:45;24.40;99.90
19755;DHT22;10036;47.812;9.274;2023-07-20T11:43:13;24.20;99.90
19755;DHT22;10036;47.812;9.274;2023-07-20T11:45:40;24.20;99.90
19755;DHT22;10036;47.812;9.274;2023-07-20T11:48:07;24.40;99.90
19755;DHT22;10036;47.812;9.274;2023-07-20T11:50:38;24.40;99.90
19755;DHT22;10036;47.812;9.274;2023-07-20T11:53:06;24.40;99.90
19755;DHT22;10036;47.812;9.274;2023-07-20T11:55:34;24.20;99.90
19755;DHT22;10036;47.812;9.274;2023-07-20T11:58:03;24.40;99.90
19755;DHT22;10036;47.812;9.274;2023-07-20T12:00:31;24.80;99.90
19755;DHT22;10036;47.812;9.274;2023-07-20T12:02:58;24.90;99.90
19755;DHT22;10036;47.812;9.274;2023-07-20T12:05:24;24.90;99.90
19755;DHT22;10036;47.812;9.274;2023-07-20T12:07:52;25.00;99.90
19755;DHT22;10036;47.812;9.274;2023-07-20T12:10:24;25.30;99.90
19755;DHT22;10036;47.812;9.274;2023-07-20T12:12:51;25.40;99.90
19755;DHT22;10036;47.812;9.274;2023-07-20T12:15:23;25.40;99.90
19755;DHT22;10036;47.812;9.274;2023-07-20T12:17:51;25.50;99.90
19755;DHT22;10036;47.812;9.274;2023-07-20T12:20:28;25.90;99.90
19755;DHT22;10036;47.812;9.274;2023-07-20T12:23:00;26.20;99.90
19755;DHT22;10036;47.812;9.274;2023-07-20T12:25:38;26.60;99.90
19755;DHT22;10036;47.812;9.274;2023-07-20T12:28:07;26.80;99.90
19755;DHT22;10036;47.812;9.274;2023-07-20T12:30:35;27.00;99.90
19755;DHT22;10036;47.812;9.274;2023-07-20T12:33:03;26.90;99.90
19755;DHT22;10036;47.812;9.274;2023-07-20T12:35:30;27.00;99.90
19755;DHT22;10036;47.812;9.274;2023-07-20T12:37:57;27.00;99.90
19755;DHT22;10036;47.812;9.274;2023-07-20T12:40:24;26.70;99.90
19755;DHT22;10036;47.812;9.274;2023-07-20T12:42:51;26.60;99.90
19755;DHT22;10036;47.812;9.274;2023-07-20T12:45:18;26.70;99.90
19755;DHT22;10036;47.812;9.274;2023-07-20T12:47:46;26.50;99.90
19755;DHT22;10036;47.812;9.274;2023-07-20T12:50:13;26.00;99.90
19755;DHT22;10036;47.812;9.274;2023-07-20T12:52:40;26.00;99.90
19755;DHT22;10036;47.812;9.274;2023-07-20T12:55:09;26.20;99.90
19755;DHT22;10036;47.812;9.274;2023-07-20T12:57:36;26.70;99.90
19755;DHT22;10036;47.812;9.274;2023-07-20T13:00:05;26.30;99.90
19755;DHT22;10036;47.812;9.274;2023-07-20T13:02:33;26.50;99.90
19755;DHT22;10036;47.812;9.274;2023-07-20T13:05:01;26.40;99.90
19755;DHT22;10036;47.812;9.274;2023-07-20T13:07:33;26.40;99.90
19755;DHT22;10036;47.812;9.274;2023-07-20T13:10:01;26.50;99.90
19755;DHT22;10036;47.812;9.274;2023-07-20T13:12:30;26.60;99.90
19755;DHT22;10036;47.812;9.274;2023-07-20T13:14:58;26.60;99.90
19755;DHT22;10036;47.812;9.274;2023-07-20T13:17:26;26.70;99.90
19755;DHT22;10036;47.812;9.274;2023-07-20T13:19:53;26.90;99.90
19755;DHT22;10036;47.812;9.274;2023-07-20T13:22:22;27.00;99.90
19755;DHT22;10036;47.812;9.274;2023-07-20T13:24:49;27.30;99.90
19755;DHT22;10036;47.812;9.274;2023-07-20T13:27:17;27.60;99.90
19755;DHT22;10036;47.812;9.274;2023-07-20T13:29:44;27.80;99.90
19755;DHT22;10036;47.812;9.274;2023-07-20T13:32:13;27.70;99.90
19755;DHT22;10036;47.812;9.274;2023-07-20T13:34:40;27.70;99.90
19755;DHT22;10036;47.812;9.274;2023-07-20T13:37:08;27.60;99.90
19755;DHT22;10036;47.812;9.274;2023-07-20T13:39:36;27.80;99.90
19755;DHT22;10036;47.812;9.274;2023-07-20T13:42:04;27.90;99.90
19755;DHT22;10036;47.812;9.274;2023-07-20T13:44:31;27.30;99.90
19755;DHT22;10036;47.812;9.274;2023-07-20T13:46:59;27.50;99.90
19755;DHT22;10036;47.812;9.274;2023-07-20T13:49:26;27.30;99.90
19755;DHT22;10036;47.812;9.274;2023-07-20T13:51:52;27.20;99.90
19755;DHT22;10036;47.812;9.274;2023-07-20T13:54:19;27.40;99.90
19755;DHT22;10036;47.812;9.274;2023-07-20T13:56:47;27.50;99.30
19755;DHT22;10036;47.812;9.274;2023-07-20T13:59:14;27.70;99.90
19755;DHT22;10036;47.812;9.274;2023-07-20T14:01:41;27.80;99.90
19755;DHT22;10036;47.812;9.274;2023-07-20T14:04:08;27.70;99.90
19755;DHT22;10036;47.812;9.274;2023-07-20T14:06:35;27.60;99.90
19755;DHT22;10036;47.812;9.274;2023-07-20T14:09:02;27.70;99.90
19755;DHT22;10036;47.812;9.274;2023-07-20T14:11:30;28.10;99.90
19755;DHT22;10036;47.812;9.274;2023-07-20T14:13:58;27.80;99.90
19755;DHT22;10036;47.812;9.274;2023-07-20T14:16:25;27.50;99.50
19755;DHT22;10036;47.812;9.274;2023-07-20T14:18:52;27.50;98.20
19755;DHT22;10036;47.812;9.274;2023-07-20T14:21:20;27.30;98.60
19755;DHT22;10036;47.812;9.274;2023-07-20T14:23:48;27.50;99.40
19755;DHT22;10036;47.812;9.274;2023-07-20T14:26:15;27.50;99.10
19755;DHT22;10036;47.812;9.274;2023-07-20T14:28:42;27.60;99.10
19755;DHT22;10036;47.812;9.274;2023-07-20T14:31:11;27.60;98.90
19755;DHT22;10036;47.812;9.274;2023-07-20T14:33:39;27.60;98.40
19755;DHT22;10036;47.812;9.274;2023-07-20T14:36:06;27.70;98.40
19755;DHT22;10036;47.812;9.274;2023-07-20T14:38:34;27.90;98.80
19755;DHT22;10036;47.812;9.274;2023-07-20T14:41:01;28.20;98.70
19755;DHT22;10036;47.812;9.274;2023-07-20T14:43:28;28.10;98.50
19755;DHT22;10036;47.812;9.274;2023-07-20T14:45:55;28.20;98.30
19755;DHT22;10036;47.812;9.274;2023-07-20T14:48:23;27.60;97.90
19755;DHT22;10036;47.812;9.274;2023-07-20T14:50:50;27.60;99.20
19755;DHT22;10036;47.812;9.274;2023-07-20T14:53:17;27.30;98.10
19755;DHT22;10036;47.812;9.274;2023-07-20T14:55:44;27.70;99.70
19755;DHT22;10036;47.812;9.274;2023-07-20T14:58:10;27.70;99.20
19755;DHT22;10036;47.812;9.274;2023-07-20T15:00:37;27.70;98.00
19755;DHT22;10036;47.812;9.274;2023-07-20T15:03:04;27.60;98.80
19755;DHT22;10036;47.812;9.274;2023-07-20T15:05:32;27.80;98.40
19755;DHT22;10036;47.812;9.274;2023-07-20T15:08:01;27.60;98.60
19755;DHT22;10036;47.812;9.274;2023-07-20T15:10:28;27.50;98.30
19755;DHT22;10036;47.812;9.274;2023-07-20T15:12:55;27.40;97.70
19755;DHT22;10036;47.812;9.274;2023-07-20T15:15:22;27.20;98.70
19755;DHT22;10036;47.812;9.274;2023-07-20T15:17:49;27.40;99.00
19755;DHT22;10036;47.812;9.274;2023-07-20T15:20:16;27.70;98.10
19755;DHT22;10036;47.812;9.274;2023-07-20T15:22:44;27.70;97.80
19755;DHT22;10036;47.812;9.274;2023-07-20T15:25:12;28.20;97.40
19755;DHT22;10036;47.812;9.274;2023-07-20T15:27:39;27.70;97.80
19755;DHT22;10036;47.812;9.274;2023-07-20T15:30:09;27.90;97.50
19755;DHT22;10036;47.812;9.274;2023-07-20T15:32:36;27.70;97.80
19755;DHT22;10036;47.812;9.274;2023-07-20T15:35:03;27.50;97.70
19755;DHT22;10036;47.812;9.274;2023-07-20T15:37:31;27.50;98.00
19755;DHT22;10036;47.812;9.274;2023-07-20T15:39:59;27.80;97.70